Aviation Digital Data Service (ADDS)

Output produced by TAFs form (0345 UTC 07 February 2016)
found at http://aviationweather.gov/adds/tafs/
 
KAEG 062325Z 0700/0724 32007KT P6SM SKC